Time;durP1;ratioP1;P1;durP2;ratioP2;P2;SDS_P1;SDS_P2;PMS_P1;PMS_P2;Temp;Humidity;BMP_temperature;BMP_pressure;BME280_temperature;BME280_humidity;BME280_pressure;Samples;Min_cycle;Max_cycle;Signal;HPM_P1;HPM_P2
2023/07/13 00:01:59;;;;;;;1999.90;999.90;;;21.70;91.20;;;;;;5113068;27;20368;-71
2023/07/13 00:04:27;;;;;;;1999.90;999.90;;;21.90;90.60;;;;;;5115191;27;20035;-70
2023/07/13 00:06:55;;;;;;;1999.90;999.90;;;22.70;89.80;;;;;;5111591;27;20257;-70
2023/07/13 00:09:22;;;;;;;1999.90;999.90;;;22.90;89.50;;;;;;5111522;27;20032;-70
2023/07/13 00:11:55;;;;;;;1999.90;999.90;;;23.00;87.80;;;;;;5114495;27;20540;-70
2023/07/13 00:14:23;;;;;;;1999.90;999.90;;;23.10;88.00;;;;;;5109952;27;20739;-71
2023/07/13 00:16:51;;;;;;;1999.90;999.90;;;23.00;88.50;;;;;;5109398;27;20077;-71
2023/07/13 00:19:19;;;;;;;1999.90;999.90;;;22.80;89.50;;;;;;5105231;27;20107;-69
2023/07/13 00:21:46;;;;;;;1999.90;999.90;;;22.90;89.00;;;;;;5113136;27;20036;-70
2023/07/13 00:24:21;;;;;;;1999.90;999.90;;;23.10;88.20;;;;;;5110786;27;20102;-70
2023/07/13 00:26:49;;;;;;;1999.90;999.90;;;23.60;86.60;;;;;;5113029;27;20064;-72
2023/07/13 00:29:16;;;;;;;1999.90;999.90;;;23.80;87.50;;;;;;5109238;27;20062;-71
2023/07/13 00:31:44;;;;;;;1999.90;999.90;;;24.20;86.50;;;;;;5117072;27;20203;-70
2023/07/13 00:34:12;;;;;;;1999.90;999.90;;;24.60;84.70;;;;;;5114498;27;20027;-71
2023/07/13 00:36:39;;;;;;;1999.90;999.90;;;24.60;84.20;;;;;;5113695;27;20176;-71
2023/07/13 00:39:06;;;;;;;1999.90;999.90;;;24.40;84.10;;;;;;5112700;27;20074;-72
2023/07/13 00:41:34;;;;;;;1999.90;999.90;;;24.90;83.40;;;;;;5108889;27;20110;-70
2023/07/13 00:44:01;;;;;;;1999.90;999.90;;;24.70;84.30;;;;;;5114255;27;20019;-70
2023/07/13 00:46:31;;;;;;;1999.90;999.90;;;25.00;83.80;;;;;;5113039;27;20042;-69
2023/07/13 00:49:05;;;;;;;1999.90;999.90;;;25.00;83.60;;;;;;5107683;27;20075;-70
2023/07/13 00:51:40;;;;;;;1999.90;999.90;;;25.10;82.90;;;;;;5111380;27;20487;-71
2023/07/13 00:54:13;;;;;;;1999.90;999.90;;;25.30;82.80;;;;;;5105772;27;20023;-69
2023/07/13 00:56:42;;;;;;;1999.90;999.90;;;25.40;81.90;;;;;;5107714;28;20422;-70
2023/07/13 00:59:12;;;;;;;1999.90;999.90;;;25.40;82.00;;;;;;5107881;27;20026;-68
2023/07/13 01:01:39;;;;;;;1999.90;999.90;;;25.90;82.10;;;;;;5109754;27;20141;-69
2023/07/13 01:04:07;;;;;;;1999.90;999.90;;;26.00;81.20;;;;;;5107751;27;20110;-70
2023/07/13 01:06:39;;;;;;;1999.90;999.90;;;26.20;80.90;;;;;;5106195;27;20051;-71
2023/07/13 01:09:10;;;;;;;1999.90;999.90;;;26.10;80.70;;;;;;5104580;27;20024;-70
2023/07/13 01:11:37;;;;;;;1999.90;999.90;;;26.30;80.40;;;;;;5103327;27;20059;-72
2023/07/13 01:14:05;;;;;;;1999.90;999.90;;;26.40;80.10;;;;;;5106148;27;20035;-71
2023/07/13 01:16:34;;;;;;;1999.90;999.90;;;26.40;80.30;;;;;;5113611;27;20027;-72
2023/07/13 01:19:03;;;;;;;1999.90;999.90;;;26.40;79.70;;;;;;5112155;27;20031;-73
2023/07/13 01:21:34;;;;;;;1999.90;999.90;;;25.80;80.70;;;;;;5115761;27;20031;-71
2023/07/13 01:24:02;;;;;;;1999.90;999.90;;;26.10;80.70;;;;;;5110311;27;20071;-72
2023/07/13 01:26:29;;;;;;;1999.90;999.90;;;26.60;80.60;;;;;;5110306;27;20031;-71
2023/07/13 01:28:56;;;;;;;1999.90;999.90;;;26.60;80.60;;;;;;5106422;27;20027;-71
2023/07/13 01:31:24;;;;;;;1999.90;999.90;;;27.00;78.80;;;;;;5101562;27;20053;-69
2023/07/13 01:33:51;;;;;;;1999.90;999.90;;;27.20;78.40;;;;;;5102224;27;20020;-68
2023/07/13 01:36:21;;;;;;;1999.90;999.90;;;27.30;78.80;;;;;;5103705;27;20039;-69
2023/07/13 01:38:48;;;;;;;1999.90;999.90;;;27.90;77.20;;;;;;5102253;27;20048;-67
2023/07/13 01:41:15;;;;;;;1999.90;999.90;;;28.00;76.30;;;;;;5103485;27;20023;-67
2023/07/13 01:43:43;;;;;;;1999.90;999.90;;;27.90;76.40;;;;;;5105682;27;20028;-68
2023/07/13 01:46:10;;;;;;;1999.90;999.90;;;27.70;76.10;;;;;;5097063;28;20482;-69
2023/07/13 01:48:37;;;;;;;1999.90;999.90;;;27.50;77.00;;;;;;5109883;27;20109;-71
2023/07/13 01:51:05;;;;;;;1999.90;999.90;;;27.60;76.00;;;;;;5105604;27;20115;-70
2023/07/13 01:53:32;;;;;;;1999.90;999.90;;;27.60;76.30;;;;;;5111809;27;20030;-71
2023/07/13 01:55:59;;;;;;;1999.90;999.90;;;27.80;76.90;;;;;;5109877;27;20028;-70
2023/07/13 01:58:27;;;;;;;1999.90;999.90;;;27.90;76.20;;;;;;5106780;27;20479;-69
2023/07/13 02:00:54;;;;;;;1999.90;999.90;;;28.00;75.70;;;;;;5103693;27;20500;-69
2023/07/13 02:03:22;;;;;;;1999.90;999.90;;;28.20;75.80;;;;;;5115863;27;20393;-68
2023/07/13 02:05:49;;;;;;;1999.90;999.90;;;28.30;76.30;;;;;;5116410;27;20070;-70
2023/07/13 02:08:16;;;;;;;1999.90;999.90;;;28.50;75.40;;;;;;5115154;27;20372;-70
2023/07/13 02:10:44;;;;;;;1999.90;999.90;;;28.60;75.80;;;;;;5107742;27;20046;-69
2023/07/13 02:13:11;;;;;;;1999.90;999.90;;;28.50;75.10;;;;;;5115345;27;20024;-70
2023/07/13 02:15:41;;;;;;;1999.90;999.90;;;28.20;75.50;;;;;;5102891;27;20031;-70
2023/07/13 02:18:16;;;;;;;1999.90;999.90;;;28.20;75.20;;;;;;5100798;27;20043;-69
2023/07/13 02:20:44;;;;;;;1999.90;999.90;;;28.50;75.20;;;;;;5114831;27;20039;-67
2023/07/13 02:23:12;;;;;;;1999.90;999.90;;;28.60;75.40;;;;;;5097259;28;20538;-68
2023/07/13 02:25:39;;;;;;;1999.90;999.90;;;28.40;75.80;;;;;;5104884;27;20496;-70
2023/07/13 02:28:07;;;;;;;1999.90;999.90;;;28.30;76.10;;;;;;5107172;27;20446;-67
2023/07/13 02:30:35;;;;;;;1999.90;999.90;;;28.40;76.30;;;;;;5113307;27;20031;-67
2023/07/13 02:33:03;;;;;;;1999.90;999.90;;;28.30;74.80;;;;;;5106837;28;20784;-69
2023/07/13 02:35:30;;;;;;;1999.90;999.90;;;28.10;74.60;;;;;;5110357;28;20030;-68
2023/07/13 02:37:57;;;;;;;1999.90;999.90;;;27.80;75.10;;;;;;5108370;28;20641;-68
2023/07/13 02:40:26;;;;;;;1999.90;999.90;;;27.40;75.10;;;;;;5106834;28;20369;-67
2023/07/13 02:42:53;;;;;;;1999.90;999.90;;;27.10;76.00;;;;;;5105376;28;20530;-67
2023/07/13 02:45:21;;;;;;;1999.90;999.90;;;27.00;75.90;;;;;;5107364;28;20027;-68
2023/07/13 02:47:48;;;;;;;1999.90;999.90;;;26.80;75.90;;;;;;5103735;28;20023;-68
2023/07/13 02:50:15;;;;;;;1999.90;999.90;;;26.80;77.70;;;;;;5106671;28;20023;-69
2023/07/13 02:52:43;;;;;;;1999.90;999.90;;;26.60;77.10;;;;;;5112578;28;20031;-71
2023/07/13 02:55:10;;;;;;;1999.90;999.90;;;26.30;76.60;;;;;;5111040;28;20026;-71
2023/07/13 02:57:38;;;;;;;1999.90;999.90;;;26.20;76.80;;;;;;5115514;28;20244;-69
2023/07/13 03:00:06;;;;;;;1999.90;999.90;;;25.70;75.80;;;;;;5113748;28;20110;-72
2023/07/13 03:02:35;;;;;;;1999.90;999.90;;;25.50;75.30;;;;;;5117990;27;20020;-69
2023/07/13 03:05:03;;;;;;;1999.90;999.90;;;25.30;77.80;;;;;;5108339;27;20051;-70
2023/07/13 03:07:32;;;;;;;1999.90;999.90;;;24.40;78.00;;;;;;5117811;27;20027;-71
